Ship Status Report: callsign BAREU11

sailwx.info

Track history (hours):
 
Tides and Currents Weather Stations Pressure Air Temp Water Temp Dewpoint Dewpoint Depression Visibility Wind Speed Wind Dir Waves Ship Positions

Callsign BAREU11 (name unknown)

Last reported at 2014-Aug-31 03:00 UTC. Time now 2014-Aug-31 04:34 UTC.
Position N 45°36' W 025°30'.

Barometer 1017.0 mb

Date/timePositionNaut miles runAvg speedWind from/ knotsBaromVisibWave heightAir tempDewpointWater temp
2014-Aug-31 03:00N 45°36' W 025°30'1817.8 1017.0
2014-Aug-31 02:00N 45°42' W 025°06'1817.8 1016.3
2014-Aug-31 01:00N 45°48' W 024°42'3517.7 1015.5
2014-Aug-30 23:00N 46°00' W 023°54'1817.7 1015.3
2014-Aug-30 22:00N 46°06' W 023°30'1817.7 1015.1
2014-Aug-30 21:00N 46°12' W 023°06'3517.6 1015.0
2014-Aug-30 19:00N 46°24' W 022°18'1413.8 1014.9
2014-Aug-30 18:00N 46°30' W 022°00'1716.5 1015.1
2014-Aug-30 17:00N 46°30' W 021°36'1717.2 1015.2
2014-Aug-30 16:00N 46°42' W 021°18'3517.5 1016.0
2014-Aug-30 14:00N 46°54' W 020°30'1413.7 1017.7
2014-Aug-30 13:00N 47°00' W 020°12'3919.3 1018.4
2014-Aug-30 11:00N 47°12' W 019°18'1717.4 1020.1
2014-Aug-30 10:00N 47°18' W 018°54'1717.3 1020.6
2014-Aug-30 09:00N 47°24' W 018°30'3819.2 1020.8
2014-Aug-30 07:00N 47°36' W 017°36'1616.2 1021.0
2014-Aug-30 06:00N 47°36' W 017°12'1717.2 1020.8
2014-Aug-30 05:00N 47°42' W 016°48'1717.2 1020.7
2014-Aug-30 04:00N 47°48' W 016°24'1717.2 1021.2
2014-Aug-30 03:00N 47°54' W 016°00'3819.0 1021.6
2014-Aug-30 01:00N 48°06' W 015°06'1717.1 1021.8
2014-Aug-30 00:00N 48°12' W 014°42'1616.0 1021.6
2014-Aug-29 23:00N 48°12' W 014°18'1717.1 1021.3
2014-Aug-29 22:00N 48°18' W 013°54'2120.8 1021.1
2014-Aug-29 21:00N 48°24' W 013°24'1615.9 1020.8
2014-Aug-29 20:00N 48°24' W 013°00'1717.0 1020.1
2014-Aug-29 19:00N 48°30' W 012°36'1717.0 1019.4
2014-Aug-29 18:00N 48°36' W 012°12'3618.1 1019.2
2014-Aug-29 16:00N 48°42' W 011°18'1716.9 1018.7
2014-Aug-29 15:00N 48°48' W 010°54'3216.1 1018.8
2014-Aug-29 13:00N 48°54' W 010°06'2120.6 1018.4
2014-Aug-29 12:00N 49°00' W 009°36'1716.8 1018.0
2014-Aug-29 11:00N 49°06' W 009°12'1716.8 1017.3
2014-Aug-29 10:00N 49°12' W 008°48'1716.8 1016.8
2014-Aug-29 09:00N 49°18' W 008°24'1716.7 1015.9
2014-Aug-29 08:00N 49°24' W 008°00'1716.7 1015.3
2014-Aug-29 07:00N 49°30' W 007°36'1211.7 1014.6
2014-Aug-29 06:00N 49°30' W 007°18'1716.7 1014.0
2014-Aug-29 05:00N 49°36' W 006°54'1313.1 1013.0
2014-Aug-29 04:00N 49°42' W 006°36'1919.4 1013.1
2014-Aug-29 03:00N 49°42' W 006°06'1615.5 1012.7
2014-Aug-29 02:00N 49°42' W 005°42'1615.5 1013.1
2014-Aug-29 01:00N 49°42' W 005°18'1615.5 1013.1
2014-Aug-29 00:00N 49°42' W 004°54'2020.3 1013.4
2014-Aug-28 23:00N 49°48' W 004°24'1515.5 1013.3
2014-Aug-28 22:00N 49°48' W 004°00'3316.6 1013.5
2014-Aug-28 20:00N 50°00' W 003°12'1515.4 1013.1
2014-Aug-28 19:00N 50°00' W 002°48'1716.5 1013.2
2014-Aug-28 18:00N 50°06' W 002°24'1716.5 1013.1
2014-Aug-28 17:00N 50°12' W 002°00'3919.4 1013.5
2014-Aug-28 15:00N 50°18' W 001°00'2020.1 1012.8
2014-Aug-28 14:00N 50°24' W 000°30'1616.4 1012.6
2014-Aug-28 13:00N 50°30' W 000°06'2020.0 1012.7
2014-Aug-28 12:00N 50°36' E 000°24'1312.9 1012.4
2014-Aug-28 11:00N 50°42' E 000°42'1616.3 1012.2
2014-Aug-28 10:00N 50°48' E 001°06'2121.3 1012.0
2014-Aug-28 09:00N 51°06' E 001°24'1919.2 1011.7
2014-Aug-28 08:00N 51°18' E 001°48'1312.7 1011.1
2014-Aug-28 07:00N 51°24' E 002°06'1918.7 1012.0
2014-Aug-28 06:00N 51°24' E 002°36'1515.0 1012.1
2014-Aug-28 05:00N 51°24' E 003°00'3712.5 1012.4
2014-Aug-28 02:00N 51°24' E 004°00'1312.7 1014.6
2014-Aug-28 01:00N 51°18' E 004°18'16 1.0 1015.3
2014-Aug-27 09:00N 51°24' E 003°54'1111.2 1016.6
2014-Aug-27 08:00N 51°24' E 003°36'1515.0 1016.6
2014-Aug-27 07:00N 51°24' E 003°12'1515.0 1015.8
2014-Aug-27 06:00N 51°24' E 002°48'7 0.9 1015.1
2014-Aug-26 22:00N 51°24' E 002°36'0 0.0 1011.4
2014-Aug-26 10:00N 51°24' E 002°36'1616.1 1003.8
2014-Aug-26 09:00N 51°18' E 002°12'3517.7 1003.3
2014-Aug-26 07:00N 51°48' E 001°42'2211.1 1002.5
2014-Aug-26 05:00N 51°36' E 001°12'27 1.3 1001.7
2014-Aug-25 08:00N 51°30' E 000°30'0 0.0 1011.6
2014-Aug-25 07:00N 51°30' E 000°30'7 7.5 1012.3
2014-Aug-25 06:00N 51°30' E 000°42'7 2.5 1012.9
2014-Aug-25 03:00N 51°30' E 000°54'1312.7 1014.7
2014-Aug-25 02:00N 51°36' E 001°12'1312.7 1015.0
2014-Aug-25 01:00N 51°42' E 001°30'1414.1 1015.6
2014-Aug-25 00:00N 51°54' E 001°42'1414.1 1016.0
2014-Aug-24 23:00N 52°06' E 001°54'1919.0 1016.2
2014-Aug-24 22:00N 52°18' E 002°18'3818.9 1016.4
2014-Aug-24 20:00N 52°42' E 003°06'1919.1 1017.6
2014-Aug-24 19:00N 52°48' E 003°36'1918.8 1017.3
2014-Aug-24 18:00N 53°00' E 004°00'1918.8 1017.0
2014-Aug-24 17:00N 53°12' E 004°24'1919.4 1016.4
2014-Aug-24 16:00N 53°30' E 004°36'1918.8 1017.0
2014-Aug-24 15:00N 53°36' E 005°06'3718.7 1016.8
2014-Aug-24 13:00N 53°48' E 006°06'2222.1 1016.2
2014-Aug-24 12:00N 53°54' E 006°42'2222.0 1015.7
2014-Aug-24 11:00N 54°00' E 007°18'1817.6 1014.9
2014-Aug-24 10:00N 54°00' E 007°48'1817.6 1014.1
2014-Aug-24 09:00N 54°00' E 008°18'1110.6 1014.1
2014-Aug-24 08:00N 54°00' E 008°36'1212.2 1013.5
2014-Aug-24 07:00N 53°54' E 008°54'1414.1 1013.4
2014-Aug-24 06:00N 53°54' E 009°18'1413.9 1012.9
2014-Aug-24 05:00N 53°42' E 009°30'1212.2 1013.4
2014-Aug-24 04:00N 53°36' E 009°48'0 0.0 1013.3
2014-Aug-22 11:00N 53°36' E 009°48'1110.7 1010.1
2014-Aug-22 10:00N 53°36' E 009°30'1312.5 1009.6
2014-Aug-22 09:00N 53°48' E 009°24'1515.4 1009.0
2014-Aug-22 08:00N 53°54' E 009°00'1515.3 1009.2
2014-Aug-22 07:00N 54°00' E 008°36'1414.1 1008.6
2014-Aug-22 06:00N 54°00' E 008°12'2914.4 1008.1
2014-Aug-22 04:00N 53°54' E 007°24'1515.4 1008.4
2014-Aug-22 03:00N 53°48' E 007°00'1414.2 1008.8
2014-Aug-22 02:00N 53°48' E 006°36'1515.4 1009.2
2014-Aug-22 01:00N 53°42' E 006°12'1515.4 1009.4
2014-Aug-22 00:00N 53°36' E 005°48'1414.2 1009.7
2014-Aug-21 23:00N 53°36' E 005°24'1515.5 1010.4
2014-Aug-21 22:00N 53°30' E 005°00'1212.3 1011.1
2014-Aug-21 21:00N 53°24' E 004°42'2814.0 1010.9
2014-Aug-21 19:00N 53°00' E 004°18'2814.0 1011.9
2014-Aug-21 17:00N 52°36' E 003°54'1212.0 1013.0
2014-Aug-21 16:00N 52°24' E 003°54'2412.0 1013.8
2014-Aug-21 14:00N 52°00' E 003°54'1312.6 1015.0
2014-Aug-21 13:00N 51°54' E 004°12'7 7.4 1015.1
2014-Aug-21 12:00N 51°54' E 004°24'   1015.8
Track history (hours):
 
Tides and Currents Weather Stations Pressure Air Temp Water Temp Dewpoint Dewpoint Depression Visibility Wind Speed Wind Dir Waves Ship Positions

Callsign BAREU11 (name unknown)

Last reported at 2014-Aug-31 03:00 UTC. Time now 2014-Aug-31 04:34 UTC.
Position N 45°36' W 025°30'.

Barometer 1017.0 mb

Date/timePositionNaut miles runAvg speedWind from/ knotsBaromVisibWave heightAir tempDewpointWater temp
2014-Aug-31 03:00N 45°36' W 025°30'1817.8 1017.0
2014-Aug-31 02:00N 45°42' W 025°06'1817.8 1016.3
2014-Aug-31 01:00N 45°48' W 024°42'3517.7 1015.5
2014-Aug-30 23:00N 46°00' W 023°54'1817.7 1015.3
2014-Aug-30 22:00N 46°06' W 023°30'1817.7 1015.1
2014-Aug-30 21:00N 46°12' W 023°06'3517.6 1015.0
2014-Aug-30 19:00N 46°24' W 022°18'1413.8 1014.9
2014-Aug-30 18:00N 46°30' W 022°00'1716.5 1015.1
2014-Aug-30 17:00N 46°30' W 021°36'1717.2 1015.2
2014-Aug-30 16:00N 46°42' W 021°18'3517.5 1016.0
2014-Aug-30 14:00N 46°54' W 020°30'1413.7 1017.7
2014-Aug-30 13:00N 47°00' W 020°12'3919.3 1018.4
2014-Aug-30 11:00N 47°12' W 019°18'1717.4 1020.1
2014-Aug-30 10:00N 47°18' W 018°54'1717.3 1020.6
2014-Aug-30 09:00N 47°24' W 018°30'3819.2 1020.8
2014-Aug-30 07:00N 47°36' W 017°36'1616.2 1021.0
2014-Aug-30 06:00N 47°36' W 017°12'1717.2 1020.8
2014-Aug-30 05:00N 47°42' W 016°48'1717.2 1020.7
2014-Aug-30 04:00N 47°48' W 016°24'1717.2 1021.2
2014-Aug-30 03:00N 47°54' W 016°00'3819.0 1021.6
2014-Aug-30 01:00N 48°06' W 015°06'1717.1 1021.8
2014-Aug-30 00:00N 48°12' W 014°42'1616.0 1021.6
2014-Aug-29 23:00N 48°12' W 014°18'1717.1 1021.3
2014-Aug-29 22:00N 48°18' W 013°54'2120.8 1021.1
2014-Aug-29 21:00N 48°24' W 013°24'1615.9 1020.8
2014-Aug-29 20:00N 48°24' W 013°00'1717.0 1020.1
2014-Aug-29 19:00N 48°30' W 012°36'1717.0 1019.4
2014-Aug-29 18:00N 48°36' W 012°12'3618.1 1019.2
2014-Aug-29 16:00N 48°42' W 011°18'1716.9 1018.7
2014-Aug-29 15:00N 48°48' W 010°54'3216.1 1018.8
2014-Aug-29 13:00N 48°54' W 010°06'2120.6 1018.4
2014-Aug-29 12:00N 49°00' W 009°36'1716.8 1018.0
2014-Aug-29 11:00N 49°06' W 009°12'1716.8 1017.3
2014-Aug-29 10:00N 49°12' W 008°48'1716.8 1016.8
2014-Aug-29 09:00N 49°18' W 008°24'1716.7 1015.9
2014-Aug-29 08:00N 49°24' W 008°00'1716.7 1015.3
2014-Aug-29 07:00N 49°30' W 007°36'1211.7 1014.6
2014-Aug-29 06:00N 49°30' W 007°18'1716.7 1014.0
2014-Aug-29 05:00N 49°36' W 006°54'1313.1 1013.0
2014-Aug-29 04:00N 49°42' W 006°36'1919.4 1013.1
2014-Aug-29 03:00N 49°42' W 006°06'1615.5 1012.7
2014-Aug-29 02:00N 49°42' W 005°42'1615.5 1013.1
2014-Aug-29 01:00N 49°42' W 005°18'1615.5 1013.1
2014-Aug-29 00:00N 49°42' W 004°54'2020.3 1013.4
2014-Aug-28 23:00N 49°48' W 004°24'1515.5 1013.3
2014-Aug-28 22:00N 49°48' W 004°00'3316.6 1013.5
2014-Aug-28 20:00N 50°00' W 003°12'1515.4 1013.1
2014-Aug-28 19:00N 50°00' W 002°48'1716.5 1013.2
2014-Aug-28 18:00N 50°06' W 002°24'1716.5 1013.1
2014-Aug-28 17:00N 50°12' W 002°00'3919.4 1013.5
2014-Aug-28 15:00N 50°18' W 001°00'2020.1 1012.8
2014-Aug-28 14:00N 50°24' W 000°30'1616.4 1012.6
2014-Aug-28 13:00N 50°30' W 000°06'2020.0 1012.7
2014-Aug-28 12:00N 50°36' E 000°24'1312.9 1012.4
2014-Aug-28 11:00N 50°42' E 000°42'1616.3 1012.2
2014-Aug-28 10:00N 50°48' E 001°06'2121.3 1012.0
2014-Aug-28 09:00N 51°06' E 001°24'1919.2 1011.7
2014-Aug-28 08:00N 51°18' E 001°48'1312.7 1011.1
2014-Aug-28 07:00N 51°24' E 002°06'1918.7 1012.0
2014-Aug-28 06:00N 51°24' E 002°36'1515.0 1012.1
2014-Aug-28 05:00N 51°24' E 003°00'3712.5 1012.4
2014-Aug-28 02:00N 51°24' E 004°00'1312.7 1014.6
2014-Aug-28 01:00N 51°18' E 004°18'16 1.0 1015.3
2014-Aug-27 09:00N 51°24' E 003°54'1111.2 1016.6
2014-Aug-27 08:00N 51°24' E 003°36'1515.0 1016.6
2014-Aug-27 07:00N 51°24' E 003°12'1515.0 1015.8
2014-Aug-27 06:00N 51°24' E 002°48'7 0.9 1015.1
2014-Aug-26 22:00N 51°24' E 002°36'0 0.0 1011.4
2014-Aug-26 10:00N 51°24' E 002°36'1616.1 1003.8
2014-Aug-26 09:00N 51°18' E 002°12'3517.7 1003.3
2014-Aug-26 07:00N 51°48' E 001°42'2211.1 1002.5
2014-Aug-26 05:00N 51°36' E 001°12'27 1.3 1001.7
2014-Aug-25 08:00N 51°30' E 000°30'0 0.0 1011.6
2014-Aug-25 07:00N 51°30' E 000°30'7 7.5 1012.3
2014-Aug-25 06:00N 51°30' E 000°42'7 2.5 1012.9
2014-Aug-25 03:00N 51°30' E 000°54'1312.7 1014.7
2014-Aug-25 02:00N 51°36' E 001°12'1312.7 1015.0
2014-Aug-25 01:00N 51°42' E 001°30'1414.1 1015.6
2014-Aug-25 00:00N 51°54' E 001°42'1414.1 1016.0
2014-Aug-24 23:00N 52°06' E 001°54'1919.0 1016.2
2014-Aug-24 22:00N 52°18' E 002°18'3818.9 1016.4
2014-Aug-24 20:00N 52°42' E 003°06'1919.1 1017.6
2014-Aug-24 19:00N 52°48' E 003°36'1918.8 1017.3
2014-Aug-24 18:00N 53°00' E 004°00'1918.8 1017.0
2014-Aug-24 17:00N 53°12' E 004°24'1919.4 1016.4
2014-Aug-24 16:00N 53°30' E 004°36'1918.8 1017.0
2014-Aug-24 15:00N 53°36' E 005°06'3718.7 1016.8
2014-Aug-24 13:00N 53°48' E 006°06'2222.1 1016.2
2014-Aug-24 12:00N 53°54' E 006°42'2222.0 1015.7
2014-Aug-24 11:00N 54°00' E 007°18'1817.6 1014.9
2014-Aug-24 10:00N 54°00' E 007°48'1817.6 1014.1
2014-Aug-24 09:00N 54°00' E 008°18'1110.6 1014.1
2014-Aug-24 08:00N 54°00' E 008°36'1212.2 1013.5
2014-Aug-24 07:00N 53°54' E 008°54'1414.1 1013.4
2014-Aug-24 06:00N 53°54' E 009°18'1413.9 1012.9
2014-Aug-24 05:00N 53°42' E 009°30'1212.2 1013.4
2014-Aug-24 04:00N 53°36' E 009°48'0 0.0 1013.3
2014-Aug-22 11:00N 53°36' E 009°48'1110.7 1010.1
2014-Aug-22 10:00N 53°36' E 009°30'1312.5 1009.6
2014-Aug-22 09:00N 53°48' E 009°24'1515.4 1009.0
2014-Aug-22 08:00N 53°54' E 009°00'1515.3 1009.2
2014-Aug-22 07:00N 54°00' E 008°36'1414.1 1008.6
2014-Aug-22 06:00N 54°00' E 008°12'2914.4 1008.1
2014-Aug-22 04:00N 53°54' E 007°24'1515.4 1008.4
2014-Aug-22 03:00N 53°48' E 007°00'1414.2 1008.8
2014-Aug-22 02:00N 53°48' E 006°36'1515.4 1009.2
2014-Aug-22 01:00N 53°42' E 006°12'1515.4 1009.4
2014-Aug-22 00:00N 53°36' E 005°48'1414.2 1009.7
2014-Aug-21 23:00N 53°36' E 005°24'1515.5 1010.4
2014-Aug-21 22:00N 53°30' E 005°00'1212.3 1011.1
2014-Aug-21 21:00N 53°24' E 004°42'2814.0 1010.9
2014-Aug-21 19:00N 53°00' E 004°18'2814.0 1011.9
2014-Aug-21 17:00N 52°36' E 003°54'1212.0 1013.0
2014-Aug-21 16:00N 52°24' E 003°54'2412.0 1013.8
2014-Aug-21 14:00N 52°00' E 003°54'1312.6 1015.0
2014-Aug-21 13:00N 51°54' E 004°12'7 7.4 1015.1
2014-Aug-21 12:00N 51°54' E 004°24'   1015.8

Dump ship's entire track history